Thunder radar more information blitzortung!


Radar de pluja more information rain snow radar


Visita la nostra xarxa de llocs de meteo:

Template documentation
and downloads

And another site



No particular awareness of the weather is required.    There are no Weather-warnings

Pagina Historial Weather Underground text

Diari Resum Octubre 13, 2017 Unitats:  Imperial    Mètric   Tant
« Previous Dia
SegĂźent Dia »
Diari Setmana Mensual Anual Personalitzada
  Maxima: Minima: Media:
Temperatura: 77.9 °F 59 °F 67.5 °F
Punt de rosada: 63.9 °F 56.3 °F 60.4 °F
Humitat: 95 % 59 % 79 %
Wind Speed: 10.4 mph 0 mph 2.7 mph
RĂ fegues de vent: 10.4 mph - -
Vent:- - SSE
Pression baro: 30.3 in 30.2 in -
Precipitacions: 0 in    
Historical Graphs
 
 
Dades de taula per Octubre 13, 2017
Temps Temperatura Punt de rosada Pression baro Vent Wind Speed RĂ fegues de vent Humitat Rainfall Rate (Hourly)
00:01 66 °F 61.7 °F 30.3 in SW 3.5 mph 3.5 mph 86 % 0 in
00:06 66 °F 61.7 °F 30.3 in WNW 1.2 mph   86 % 0 in
00:11 66 °F 61.7 °F 30.3 in NW 1.2 mph 1.2 mph 86 % 0 in
00:16 66 °F 62.1 °F 30.3 in WSW 2.3 mph 2.3 mph 87 % 0 in
00:21 65.8 °F 61.9 °F 30.3 in Calm     87 % 0 in
00:26 65.8 °F 62.2 °F 30.3 in Calm     88 % 0 in
00:31 65.8 °F 62.2 °F 30.3 in Calm     88 % 0 in
00:36 65.8 °F 62.2 °F 30.3 in WSW 1.2 mph   88 % 0 in
00:41 65.8 °F 62.2 °F 30.3 in Calm     88 % 0 in
00:46 65.8 °F 62.2 °F 30.3 in Calm     88 % 0 in
00:51 65.8 °F 62.2 °F 30.3 in Calm     88 % 0 in
00:56 65.8 °F 62.2 °F 30.3 in Calm     88 % 0 in
01:01 65.8 °F 62.2 °F 30.3 in Calm     88 % 0 in
01:06 65.7 °F 62.1 °F 30.3 in WSW 1.2 mph 1.2 mph 88 % 0 in
01:11 65.7 °F 62.1 °F 30.3 in SW 1.2 mph   88 % 0 in
01:16 65.5 °F 61.9 °F 30.3 in Calm     88 % 0 in
01:21 65.7 °F 62.2 °F 30.3 in Calm     89 % 0 in
01:26 65.8 °F 62.4 °F 30.3 in SW 1.2 mph   89 % 0 in
01:31 65.8 °F 62.4 °F 30.3 in SW 1.2 mph   89 % 0 in
01:36 66 °F 62.8 °F 30.3 in West 2.3 mph 2.3 mph 89 % 0 in
01:37 66 °F 62.8 °F 30.3 in West 1.4 mph 1.4 mph 89 % 0 in
01:42 66.2 °F 62.4 °F 30.3 in WSW 2.3 mph 2.3 mph 88 % 0 in
01:47 66.2 °F 62.4 °F 30.3 in SW 1.4 mph 1.4 mph 88 % 0 in
01:52 66 °F 62.8 °F 30.3 in SW 2.3 mph   89 % 0 in
01:57 65.8 °F 62.2 °F 30.3 in SW 2.3 mph 2.3 mph 88 % 0 in
02:02 65.8 °F 62.2 °F 30.3 in WSW 3.5 mph 3.5 mph 88 % 0 in
02:07 66 °F 62.4 °F 30.3 in SW 2.3 mph 2.3 mph 88 % 0 in
02:12 66 °F 62.4 °F 30.3 in West 1.2 mph 1.2 mph 88 % 0 in
02:17 66 °F 62.4 °F 30.3 in WSW 1.2 mph   88 % 0 in
02:22 66 °F 62.4 °F 30.3 in SW 2.9 mph   88 % 0 in
02:27 66.2 °F 62.2 °F 30.3 in West 2.3 mph 2.3 mph 87 % 0 in
02:32 66.2 °F 62.2 °F 30.3 in WSW 3.5 mph 3.5 mph 87 % 0 in
02:37 66.2 °F 62.2 °F 30.3 in West 2.3 mph 2.3 mph 87 % 0 in
02:42 66 °F 62.4 °F 30.3 in WSW 2.3 mph 2.4 mph 88 % 0 in
02:47 65.8 °F 62.2 °F 30.3 in WSW 3.5 mph 3.5 mph 88 % 0 in
02:52 65.7 °F 62.1 °F 30.3 in SW 1.4 mph 1.4 mph 88 % 0 in
02:57 65.7 °F 62.1 °F 30.3 in WSW 2.3 mph 2.3 mph 88 % 0 in
03:02 65.5 °F 61.9 °F 30.3 in West 2.3 mph   88 % 0 in
03:07 65.3 °F 61.7 °F 30.3 in Calm     88 % 0 in
03:12 64.4 °F 60.4 °F 30.3 in NNE 2 mph 2 mph 87 % 0 in
03:17 64 °F 60.1 °F 30.3 in NNE 1.2 mph 1.2 mph 87 % 0 in
03:22 63.7 °F 59.7 °F 30.3 in NE 1.2 mph   87 % 0 in
03:27 63.5 °F 59.5 °F 30.3 in Calm     87 % 0 in
03:32 63.3 °F 59.7 °F 30.3 in Calm     88 % 0 in
03:37 63.3 °F 59.7 °F 30.3 in Calm     88 % 0 in
03:42 63.1 °F 59.5 °F 30.3 in Calm     88 % 0 in
03:47 62.8 °F 59.2 °F 30.3 in Calm     88 % 0 in
03:52 62.4 °F 58.8 °F 30.3 in SW 2.3 mph 2.3 mph 88 % 0 in
03:57 62.2 °F 58.6 °F 30.3 in WSW 2.3 mph 2.3 mph 88 % 0 in
04:02 62.1 °F 58.5 °F 30.3 in SW 1.2 mph 1.2 mph 88 % 0 in
04:03 62.1 °F 58.5 °F 30.3 in SW 1.2 mph 1.2 mph 88 % 0 in
04:08 61.9 °F 58.3 °F 30.3 in Calm     88 % 0 in
04:13 61.9 °F 58.6 °F 30.3 in WSW 2.2 mph 2.2 mph 89 % 0 in
04:18 61.7 °F 58.5 °F 30.3 in Calm     89 % 0 in
04:23 61.7 °F 58.5 °F 30.3 in WSW 2.3 mph 2.3 mph 89 % 0 in
04:28 61.5 °F 58.3 °F 30.3 in Calm     89 % 0 in
04:33 61.5 °F 58.3 °F 30.3 in SW 2.3 mph 2.3 mph 89 % 0 in
04:38 61.2 °F 57.9 °F 30.3 in SW 1.4 mph   89 % 0 in
04:43 61 °F 57.7 °F 30.3 in SW 1.4 mph 1.4 mph 89 % 0 in
04:48 61 °F 57.7 °F 30.3 in SW 1.6 mph 1.6 mph 89 % 0 in
04:53 60.8 °F 57.6 °F 30.3 in Calm     89 % 0 in
04:58 60.6 °F 57.4 °F 30.3 in WSW 1.2 mph 1.2 mph 89 % 0 in
05:03 60.6 °F 57.4 °F 30.3 in WSW 1.4 mph 1.4 mph 89 % 0 in
05:08 60.6 °F 57.7 °F 30.3 in WSW 1.4 mph   90 % 0 in
05:13 60.4 °F 57.6 °F 30.3 in WSW 1.6 mph 1.6 mph 90 % 0 in
05:18 60.4 °F 57.2 °F 30.3 in WSW 1.4 mph 1.4 mph 89 % 0 in
05:23 60.1 °F 56.8 °F 30.3 in WSW 1.6 mph 1.6 mph 89 % 0 in
05:28 60.1 °F 56.8 °F 30.3 in WSW 1.2 mph 1.2 mph 89 % 0 in
05:33 60.1 °F 57 °F 30.3 in SW 2.3 mph 2.3 mph 90 % 0 in
05:38 59.9 °F 57 °F 30.3 in SW 1.6 mph 1.6 mph 90 % 0 in
05:43 59.9 °F 57 °F 30.3 in SW 1.4 mph 1.6 mph 90 % 0 in
05:48 59.7 °F 56.8 °F 30.3 in SW 2.3 mph 2.3 mph 90 % 0 in
05:53 59.5 °F 56.3 °F 30.3 in SW 2.3 mph 2.4 mph 89 % 0 in
05:58 59.5 °F 56.7 °F 30.3 in SW 1.2 mph 1.2 mph 90 % 0 in
06:03 59.5 °F 56.7 °F 30.3 in SW 2.3 mph 2.3 mph 90 % 0 in
06:08 59.5 °F 56.7 °F 30.3 in Calm     90 % 0 in
06:13 59.7 °F 57 °F 30.3 in Calm     91 % 0 in
06:23 59.7 °F 57 °F 30.3 in Calm     91 % 0 in
06:28 59.7 °F 57 °F 30.3 in Calm     91 % 0 in
06:33 59.5 °F 56.8 °F 30.3 in Calm     91 % 0 in
06:38 59.5 °F 56.8 °F 30.3 in SW 1.2 mph 1.4 mph 91 % 0 in
06:43 59.5 °F 56.8 °F 30.3 in SW 1.4 mph   91 % 0 in
06:48 59.4 °F 56.7 °F 30.3 in SW 1.4 mph 1.4 mph 91 % 0 in
06:53 59.4 °F 56.7 °F 30.3 in SW 2.4 mph 2.4 mph 91 % 0 in
06:58 59.4 °F 56.7 °F 30.3 in SW 2.3 mph 2.3 mph 91 % 0 in
07:03 59.4 °F 56.7 °F 30.3 in SW 2.4 mph 2.4 mph 91 % 0 in
07:08 59.4 °F 56.7 °F 30.3 in SW 2.3 mph 2.3 mph 91 % 0 in
07:13 59.2 °F 56.7 °F 30.3 in SW 2.3 mph 2.3 mph 91 % 0 in
07:18 59.2 °F 56.7 °F 30.3 in SSW 3.5 mph 3.5 mph 91 % 0 in
07:23 59.2 °F 56.7 °F 30.3 in SW 2.3 mph 2.3 mph 91 % 0 in
07:28 59 °F 56.5 °F 30.3 in SW 2.3 mph 2.3 mph 91 % 0 in
07:33 59.2 °F 56.7 °F 30.3 in SW 2.6 mph 2.6 mph 91 % 0 in
07:38 59.4 °F 56.7 °F 30.3 in WSW 3.5 mph 3.5 mph 91 % 0 in
07:43 59.2 °F 56.8 °F 30.3 in WSW 1.4 mph 1.4 mph 92 % 0 in
07:48 59.2 °F 56.8 °F 30.3 in SW 2.3 mph 2.3 mph 92 % 0 in
07:53 59.2 °F 56.8 °F 30.3 in SW 1.2 mph 1.2 mph 92 % 0 in
07:58 59.2 °F 56.8 °F 30.3 in Calm     92 % 0 in
08:03 59.2 °F 57.2 °F 30.3 in Calm     93 % 0 in
08:08 59 °F 57 °F 30.3 in Calm     93 % 0 in
08:13 59 °F 57 °F 30.3 in Calm     93 % 0 in
08:18 59 °F 57 °F 30.3 in Calm     93 % 0 in
08:23 59 °F 57 °F 30.3 in Calm     93 % 0 in
08:28 59.2 °F 57.2 °F 30.3 in Calm     93 % 0 in
08:33 59.4 °F 57.4 °F 30.3 in Calm     93 % 0 in
08:38 59.5 °F 57.7 °F 30.3 in Calm     94 % 0 in
08:43 59.5 °F 57.7 °F 30.3 in Calm     94 % 0 in
08:48 59.2 °F 57.2 °F 30.3 in WSW 2.3 mph 2.3 mph 93 % 0 in
08:53 59 °F 57 °F 30.3 in SW 1.4 mph 1.4 mph 93 % 0 in
08:54 59 °F 57 °F 30.3 in SW 2.3 mph 2.3 mph 93 % 0 in
08:59 59 °F 57 °F 30.3 in WSW 2.3 mph 2.3 mph 93 % 0 in
09:04 59.2 °F 57.2 °F 30.3 in SW 2.9 mph 2.9 mph 93 % 0 in
09:09 59.4 °F 57.4 °F 30.3 in SW 2.3 mph 2.3 mph 93 % 0 in
09:14 59.5 °F 57.6 °F 30.3 in SW 3.5 mph 3.5 mph 93 % 0 in
09:19 59.7 °F 57.7 °F 30.3 in WSW 3.3 mph 3.3 mph 93 % 0 in
09:24 59.5 °F 57.6 °F 30.3 in SW 3.5 mph 3.5 mph 93 % 0 in
09:29 59.7 °F 57.7 °F 30.3 in SSW 3.5 mph 3.5 mph 93 % 0 in
09:34 59.9 °F 57.9 °F 30.3 in SW 3.5 mph 3.5 mph 93 % 0 in
09:39 60.3 °F 58.5 °F 30.3 in SW 2.4 mph 2.4 mph 94 % 0 in
09:44 60.4 °F 58.6 °F 30.3 in SW 1.2 mph   94 % 0 in
09:49 60.6 °F 58.8 °F 30.3 in SW 2.3 mph 2.3 mph 94 % 0 in
09:54 61.2 °F 59.4 °F 30.3 in SW 2.3 mph 2.3 mph 94 % 0 in
09:59 61.5 °F 60.1 °F 30.3 in SW 1.6 mph 1.6 mph 95 % 0 in
10:04 61.9 °F 60.4 °F 30.3 in SW 2.3 mph 2.3 mph 95 % 0 in
10:09 61.9 °F 60.1 °F 30.3 in SW 2.4 mph 2.4 mph 94 % 0 in
10:14 62.4 °F 60.6 °F 30.3 in SW 2.3 mph 2.3 mph 94 % 0 in
10:19 62.6 °F 60.4 °F 30.3 in WSW 2.4 mph 2.4 mph 93 % 0 in
10:24 63.1 °F 61.2 °F 30.3 in SW 2.3 mph 2.3 mph 93 % 0 in
10:29 64 °F 62.1 °F 30.3 in NE 3.3 mph   93 % 0 in
10:34 64.4 °F 62.1 °F 30.3 in NE 4.6 mph 4.6 mph 92 % 0 in
10:39 65.1 °F 62.1 °F 30.3 in NE 3.5 mph 3.5 mph 90 % 0 in
10:44 65.5 °F 62.2 °F 30.3 in ENE 3.3 mph 3.3 mph 89 % 0 in
10:49 66 °F 62.4 °F 30.3 in ENE 4.6 mph 4.6 mph 88 % 0 in
10:54 66.4 °F 62.1 °F 30.3 in NNE 4.6 mph 4.6 mph 86 % 0 in
11:00 67.1 °F 62.8 °F 30.3 in NNE 3.1 mph 3.1 mph 86 % 0 in
11:05 67.8 °F 62.8 °F 30.3 in East 2.3 mph 2.3 mph 84 % 0 in
11:10 67.8 °F 62.4 °F 30.3 in ENE 4.6 mph 4.6 mph 83 % 0 in
11:15 68 °F 62.2 °F 30.3 in East 3.5 mph 3.5 mph 82 % 0 in
11:20 68.4 °F 62.2 °F 30.3 in ENE 2.3 mph 2.3 mph 81 % 0 in
11:25 69.4 °F 63.3 °F 30.3 in ENE 2.9 mph 2.9 mph 81 % 0 in
11:30 69.4 °F 63 °F 30.3 in ENE 3.5 mph 3.5 mph 80 % 0 in
11:35 69.8 °F 62.6 °F 30.3 in ENE 2.3 mph 2.3 mph 78 % 0 in
11:40 70.3 °F 63.1 °F 30.3 in NNE 2.3 mph 2.3 mph 78 % 0 in
11:46 70.5 °F 63 °F 30.3 in ENE 2.3 mph 2.3 mph 77 % 0 in
11:51 70.7 °F 62.8 °F 30.3 in East 2.3 mph 2.3 mph 76 % 0 in
11:56 71.1 °F 63.1 °F 30.3 in East 2.3 mph 2.3 mph 76 % 0 in
12:01 70.9 °F 62.6 °F 30.3 in ENE 3.5 mph 3.5 mph 75 % 0 in
12:06 71.2 °F 62.4 °F 30.3 in ESE 3.6 mph 3.6 mph 74 % 0 in
12:11 71.2 °F 63 °F 30.3 in East 3.1 mph 3.1 mph 75 % 0 in
12:16 71.8 °F 62.8 °F 30.3 in NNE 3.5 mph 3.5 mph 73 % 0 in
12:21 72.7 °F 63.9 °F 30.3 in NNE 3.5 mph 3.5 mph 74 % 0 in
12:26 72.7 °F 63.5 °F 30.3 in NNE 2.3 mph 2.3 mph 73 % 0 in
12:31 72.5 °F 63 °F 30.3 in ENE 2.3 mph   72 % 0 in
12:36 73.4 °F 63.3 °F 30.3 in ENE 3.8 mph 3.8 mph 71 % 0 in
12:41 73.9 °F 63.5 °F 30.3 in ESE 3.6 mph 3.6 mph 70 % 0 in
12:46 73.8 °F 62.4 °F 30.3 in SSE 4.6 mph 4.6 mph 68 % 0 in
12:51 73.4 °F 62.6 °F 30.3 in SE 4.6 mph 4.6 mph 69 % 0 in
12:56 74.1 °F 63.7 °F 30.3 in ESE 1.6 mph   70 % 0 in
13:01 74.7 °F 63.9 °F 30.3 in SE 3.5 mph 3.5 mph 69 % 0 in
13:06 74.3 °F 62.6 °F 30.3 in ESE 5.8 mph 5.8 mph 67 % 0 in
13:11 75.4 °F 63.1 °F 30.3 in West 3.5 mph 3.5 mph 66 % 0 in
13:16 75.6 °F 63 °F 30.3 in NE 2.6 mph 2.6 mph 65 % 0 in
13:21 75.6 °F 63.3 °F 30.3 in NNE 3.5 mph 3.5 mph 66 % 0 in
13:26 76.3 °F 63.7 °F 30.3 in ENE 4 mph 4 mph 65 % 0 in
13:31 75.9 °F 63.7 °F 30.3 in NE 3.5 mph 3.5 mph 66 % 0 in
13:36 76.8 °F 63.7 °F 30.3 in SSW 5.8 mph 5.8 mph 64 % 0 in
13:41 76.1 °F 63 °F 30.3 in ENE 4 mph 4 mph 64 % 0 in
13:46 76.1 °F 62.6 °F 30.3 in ESE 4.6 mph 4.6 mph 63 % 0 in
13:51 76.8 °F 63.3 °F 30.3 in SE 2.3 mph 3.3 mph 63 % 0 in
13:56 76.8 °F 63.3 °F 30.3 in East 4.7 mph 4.7 mph 63 % 0 in
14:02 77 °F 63 °F 30.3 in SSE 4.6 mph 4.6 mph 62 % 0 in
14:07 77.2 °F 63.7 °F 30.3 in North 2.3 mph 2.3 mph 63 % 0 in
14:12 77.9 °F 63.3 °F 30.3 in ESE 3.5 mph 3.5 mph 61 % 0 in
14:17 77.7 °F 63.7 °F 30.3 in ENE 2.3 mph 2.3 mph 62 % 0 in
14:22 77.5 °F 62.6 °F 30.3 in East 3.6 mph 3.6 mph 60 % 0 in
14:27 77.4 °F 63.3 °F 30.3 in NE 6.9 mph 6.9 mph 62 % 0 in
14:32 77.4 °F 62.4 °F 30.2 in ESE 4.6 mph 4.6 mph 60 % 0 in
14:37 77.4 °F 63 °F 30.2 in SSE 4.6 mph 4.9 mph 61 % 0 in
14:42 77.5 °F 63 °F 30.2 in SE 4.7 mph 4.7 mph 61 % 0 in
14:47 77.7 °F 62.8 °F 30.2 in East 6.9 mph 6.9 mph 60 % 0 in
14:52 77 °F 62.1 °F 30.2 in SSW 5.8 mph 5.8 mph 60 % 0 in
14:57 77.4 °F 62.4 °F 30.2 in South 4.7 mph 4.7 mph 60 % 0 in
15:02 77 °F 61.5 °F 30.3 in ESE 8.1 mph 8.1 mph 59 % 0 in
15:07 77.2 °F 62.2 °F 30.3 in ENE 5.8 mph 5.9 mph 60 % 0 in
15:12 77.2 °F 61.7 °F 30.3 in SE 5.8 mph 5.8 mph 59 % 0 in
15:17 76.8 °F 61.9 °F 30.2 in ENE 9.2 mph 9.2 mph 60 % 0 in
15:22 77 °F 62.1 °F 30.2 in NNE 6.9 mph 6.9 mph 60 % 0 in
15:27 77 °F 61.5 °F 30.2 in ENE 6.9 mph 6.9 mph 59 % 0 in
15:32 77 °F 61.5 °F 30.2 in NNW 5.8 mph 5.8 mph 59 % 0 in
15:37 76.8 °F 61.9 °F 30.2 in SE 9.2 mph 9.2 mph 60 % 0 in
15:42 76.8 °F 61.9 °F 30.2 in ESE 6.2 mph 6.2 mph 60 % 0 in
15:47 76.6 °F 61.7 °F 30.2 in ENE 8.1 mph 8.1 mph 60 % 0 in
15:52 76.5 °F 61.5 °F 30.2 in ENE 6.9 mph 6.9 mph 60 % 0 in
15:57 76.5 °F 61.5 °F 30.2 in ESE 8.1 mph 8.1 mph 60 % 0 in
16:02 76.6 °F 61.7 °F 30.2 in NE 5.8 mph 6.2 mph 60 % 0 in
16:07 76.5 °F 61.5 °F 30.2 in SE 7.4 mph 7.4 mph 60 % 0 in
16:12 76.5 °F 61.5 °F 30.2 in ENE 5.8 mph 5.8 mph 60 % 0 in
16:17 76.6 °F 61.7 °F 30.2 in ENE 8.1 mph 8.1 mph 60 % 0 in
16:22 76.6 °F 61.7 °F 30.2 in ENE 7.6 mph 7.6 mph 60 % 0 in
16:27 76.5 °F 62.1 °F 30.2 in ENE 9.2 mph 9.2 mph 61 % 0 in
16:32 76.6 °F 62.2 °F 30.2 in ESE 8.1 mph 8.1 mph 61 % 0 in
16:37 76.3 °F 61.9 °F 30.2 in ESE 10.4 mph 10.4 mph 61 % 0 in
16:42 76.1 °F 61.7 °F 30.2 in ENE 6.9 mph 6.9 mph 61 % 0 in
16:47 76.3 °F 61.9 °F 30.2 in SE 9.2 mph 9.2 mph 61 % 0 in
16:52 75.9 °F 61.5 °F 30.2 in ESE 9.2 mph 9.2 mph 61 % 0 in
16:57 75.7 °F 61.9 °F 30.2 in ESE 7.4 mph 7.4 mph 62 % 0 in
17:02 75.7 °F 61.9 °F 30.2 in NE 4.6 mph 4.6 mph 62 % 0 in
17:07 75.7 °F 61.9 °F 30.2 in SSE 6.9 mph 6.9 mph 62 % 0 in
17:12 75.6 °F 61.5 °F 30.2 in ESE 7.8 mph 7.8 mph 62 % 0 in
17:17 75.7 °F 62.2 °F 30.2 in SE 7.6 mph 7.6 mph 63 % 0 in
17:22 75.6 °F 62.1 °F 30.2 in SE 5.9 mph 5.9 mph 63 % 0 in
17:27 75 °F 62.1 °F 30.2 in NE 5.8 mph 5.8 mph 64 % 0 in
17:32 74.7 °F 61.7 °F 30.2 in ENE 8.7 mph 8.7 mph 64 % 0 in
17:37 74.5 °F 61.9 °F 30.2 in East 5.8 mph 5.8 mph 65 % 0 in
17:42 74.5 °F 61.9 °F 30.2 in ESE 6.9 mph 6.9 mph 65 % 0 in
17:47 73.9 °F 61.3 °F 30.2 in ESE 5.8 mph 5.8 mph 65 % 0 in
17:52 73.9 °F 61.3 °F 30.2 in East 5.8 mph 5.8 mph 65 % 0 in
17:57 73.9 °F 61.3 °F 30.2 in East 4.6 mph 4.6 mph 65 % 0 in
18:02 73.8 °F 61.3 °F 30.2 in East 6.9 mph 6.9 mph 65 % 0 in
18:07 73.6 °F 61.5 °F 30.2 in ESE 6.9 mph 6.9 mph 66 % 0 in
18:12 73.4 °F 61.3 °F 30.2 in ENE 5.8 mph 5.8 mph 66 % 0 in
18:17 73.2 °F 61.2 °F 30.2 in SE 5.8 mph 5.8 mph 66 % 0 in
18:22 73 °F 61 °F 30.2 in ESE 4.6 mph 4.6 mph 66 % 0 in
18:27 72.9 °F 61.3 °F 30.2 in ESE 5.8 mph 5.8 mph 67 % 0 in
18:32 72.7 °F 61.2 °F 30.2 in East 5.8 mph 5.8 mph 67 % 0 in
18:37 72.5 °F 61 °F 30.2 in East 3.5 mph 3.5 mph 67 % 0 in
18:42 72.3 °F 60.6 °F 30.2 in East 4.6 mph 4.6 mph 67 % 0 in
18:47 72.3 °F 60.6 °F 30.2 in SE 4.6 mph 4.6 mph 67 % 0 in
18:52 72.3 °F 60.6 °F 30.2 in ESE 3.5 mph 3.5 mph 67 % 0 in
18:57 72 °F 60.4 °F 30.2 in SSE 1.2 mph 1.2 mph 67 % 0 in
19:02 71.8 °F 60.3 °F 30.2 in ESE 3.5 mph 3.5 mph 67 % 0 in
19:07 71.6 °F 60.1 °F 30.2 in WSW 2.6 mph 2.6 mph 67 % 0 in
19:12 71.6 °F 60.1 °F 30.3 in SSE 2.6 mph 2.6 mph 67 % 0 in
19:17 71.4 °F 60.3 °F 30.3 in SSE 0.9 mph   68 % 0 in
19:22 71.1 °F 60.1 °F 30.3 in SSE 2.4 mph 2.4 mph 68 % 0 in
19:27 70.9 °F 60.3 °F 30.3 in SW 2.3 mph 2.3 mph 69 % 0 in
19:32 70.7 °F 60.1 °F 30.3 in SW 2.3 mph   69 % 0 in
19:37 70.5 °F 59.9 °F 30.3 in South 1.2 mph 1.2 mph 69 % 0 in
19:42 70.3 °F 60.1 °F 30.3 in Calm     70 % 0 in
19:47 70.2 °F 59.9 °F 30.3 in Calm     70 % 0 in
19:52 70 °F 59.7 °F 30.3 in SW 1.2 mph   70 % 0 in
19:57 69.8 °F 60.1 °F 30.3 in SW 0.9 mph 1.2 mph 71 % 0 in
20:02 69.6 °F 59.7 °F 30.3 in SW 2.3 mph 2.3 mph 71 % 0 in
20:07 69.4 °F 59.5 °F 30.3 in Calm     71 % 0 in
20:12 69.3 °F 59.5 °F 30.3 in WSW 2.3 mph 2.3 mph 71 % 0 in
20:17 69.3 °F 59.7 °F 30.3 in WSW 1.2 mph   72 % 0 in
20:22 69.1 °F 59.7 °F 30.3 in WSW 1.2 mph   72 % 0 in
20:27 68.9 °F 59.5 °F 30.3 in Calm     72 % 0 in
20:32 68.7 °F 59.7 °F 30.3 in Calm     73 % 0 in
20:37 68.7 °F 59.7 °F 30.3 in Calm     73 % 0 in
20:42 68.5 °F 59.5 °F 30.3 in Calm     73 % 0 in
20:47 68.4 °F 59.4 °F 30.3 in WNW 1.2 mph 1.2 mph 73 % 0 in
20:52 68.4 °F 59.7 °F 30.3 in Calm     74 % 0 in
20:57 68.2 °F 59.5 °F 30.3 in Calm     74 % 0 in
20:59 68.2 °F 59.5 °F 30.3 in Calm     74 % 0 in
21:04 68 °F 59.7 °F 30.3 in Calm     75 % 0 in
21:09 67.8 °F 60.1 °F 30.3 in Calm     76 % 0 in
21:14 67.8 °F 60.1 °F 30.3 in Calm     76 % 0 in
21:19 67.6 °F 59.7 °F 30.3 in WNW 1.2 mph 1.2 mph 76 % 0 in
21:24 67.6 °F 59.7 °F 30.3 in NW 1.2 mph   76 % 0 in
21:29 67.5 °F 59.5 °F 30.3 in NW 2.3 mph   76 % 0 in
21:34 67.5 °F 60.1 °F 30.3 in NW 1.2 mph   77 % 0 in
21:39 67.5 °F 59.5 °F 30.3 in NW 2.3 mph 2.3 mph 76 % 0 in
21:44 67.3 °F 59.7 °F 30.3 in Calm     77 % 0 in
21:49 67.3 °F 59.7 °F 30.3 in NW 1.2 mph   77 % 0 in
21:54 67.3 °F 59.7 °F 30.3 in Calm     77 % 0 in
21:59 67.3 °F 59.7 °F 30.3 in Calm     77 % 0 in
22:04 67.3 °F 59.7 °F 30.3 in Calm     77 % 0 in
22:09 67.3 °F 59.7 °F 30.3 in Calm     77 % 0 in
22:14 67.3 °F 60.3 °F 30.3 in North 1.2 mph 1.2 mph 78 % 0 in
22:19 67.3 °F 60.3 °F 30.3 in North 1.2 mph   78 % 0 in
22:24 67.3 °F 60.3 °F 30.3 in Calm     78 % 0 in
22:29 67.1 °F 60.1 °F 30.3 in North 1.2 mph 1.2 mph 78 % 0 in
22:34 67.1 °F 60.1 °F 30.3 in North 1.2 mph   78 % 0 in
22:39 66.9 °F 59.7 °F 30.3 in Calm     78 % 0 in
22:44 66.7 °F 59.7 °F 30.3 in Calm     78 % 0 in
22:49 66.7 °F 60.1 °F 30.3 in Calm     79 % 0 in
22:54 66.6 °F 59.7 °F 30.3 in Calm     79 % 0 in
22:59 66.4 °F 59.7 °F 30.3 in Calm     79 % 0 in
23:04 66.2 °F 59.5 °F 30.3 in Calm     79 % 0 in
23:09 66.2 °F 59.5 °F 30.3 in NNW 1.2 mph   79 % 0 in
23:14 66 °F 59.7 °F 30.3 in NNW 1.2 mph 1.2 mph 80 % 0 in
23:19 65.8 °F 59.5 °F 30.3 in WNW 1.6 mph 1.6 mph 80 % 0 in
23:24 65.5 °F 59.2 °F 30.3 in SW 2.3 mph 2.3 mph 80 % 0 in
23:29 65.1 °F 58.8 °F 30.3 in WSW 2.3 mph 2.3 mph 80 % 0 in
23:34 64.9 °F 58.6 °F 30.3 in SW 2.3 mph 2.3 mph 80 % 0 in
23:39 64.8 °F 58.8 °F 30.3 in SW 2.3 mph 2.3 mph 81 % 0 in
23:44 64.8 °F 58.8 °F 30.3 in SW 1.2 mph 1.2 mph 81 % 0 in
23:49 64.6 °F 59 °F 30.3 in Calm     82 % 0 in
23:54 64.6 °F 59 °F 30.3 in SW 2 mph 2 mph 82 % 0 in
23:59 64.6 °F 59 °F 30.3 in SW 2 mph 2 mph 82 % 0 in
Meteo Sesrovires
Elogis d' Weather Underground - 4 mb

Guio original per  Jim McMurry - jmcmurry@mwt.net Adaptat per a la plantilla per  Wim van der Kuil - Leuven-Template.eu

Trobareu la nostra informacio del temps tambe a:

Weather Underground

AWEKAS